createdAt,value
2022-10-17T00:00:24.674Z,5.10
2022-10-17T00:05:21.036Z,5.53
2022-10-17T00:10:17.536Z,8.38
2022-10-17T00:15:19.428Z,6.07
2022-10-17T00:20:15.990Z,5.40
2022-10-17T00:25:12.616Z,6.35
2022-10-17T00:30:13.122Z,6.10
2022-10-17T00:35:09.988Z,3.78
2022-10-17T00:40:07.211Z,4.15
2022-10-17T00:45:13.533Z,6.00
2022-10-17T00:50:11.804Z,4.53
2022-10-17T00:55:18.504Z,6.00
2022-10-17T01:00:16.770Z,5.93
2022-10-17T01:05:14.054Z,4.55
2022-10-17T01:10:11.317Z,4.57
2022-10-17T01:15:21.381Z,9.97
2022-10-17T01:20:32.902Z,4.38
2022-10-17T01:25:44.976Z,3.60
2022-10-17T01:30:59.434Z,4.43
2022-10-17T01:36:07.213Z,5.75
2022-10-17T01:41:11.094Z,5.07
2022-10-17T01:46:18.447Z,8.38
2022-10-17T01:51:26.499Z,5.77
2022-10-17T02:01:22.973Z,4.45
2022-10-17T02:06:19.524Z,4.30
2022-10-17T02:11:26.262Z,6.97
2022-10-17T02:16:40.561Z,5.15
2022-10-17T02:21:51.964Z,8.45
2022-10-17T02:26:53.605Z,6.90
2022-10-17T02:31:56.072Z,6.90
2022-10-17T02:36:56.160Z,6.68
2022-10-17T02:41:54.997Z,6.10
2022-10-17T02:47:26.798Z,11.57
2022-10-17T02:52:48.143Z,7.45
2022-10-17T02:57:50.359Z,6.85
2022-10-17T03:02:51.617Z,10.82
2022-10-17T03:07:48.244Z,5.30
2022-10-17T03:12:44.642Z,7.95
2022-10-17T03:17:41.169Z,5.85
2022-10-17T03:22:37.644Z,6.75
2022-10-17T03:27:34.074Z,8.55
2022-10-17T03:32:33.678Z,12.27
2022-10-17T03:37:30.336Z,10.32
2022-10-17T03:42:26.923Z,9.30
2022-10-17T03:47:23.323Z,7.60
2022-10-17T03:52:19.914Z,12.55
2022-10-17T03:57:16.561Z,10.52
2022-10-17T04:02:12.973Z,7.32
2022-10-17T04:07:09.393Z,6.57
2022-10-17T04:12:05.825Z,10.95
2022-10-17T04:17:02.234Z,7.18
2022-10-17T04:21:58.660Z,7.18
2022-10-17T04:26:55.565Z,10.23
2022-10-17T04:31:52.354Z,9.30
2022-10-17T04:36:48.813Z,9.15
2022-10-17T04:41:45.468Z,7.18
2022-10-17T04:46:41.947Z,8.02
2022-10-17T04:51:38.646Z,6.88
2022-10-17T04:56:35.108Z,7.70
2022-10-17T05:01:31.482Z,8.45
2022-10-17T05:06:28.309Z,5.95
2022-10-17T05:11:27.657Z,9.77
2022-10-17T05:16:25.279Z,7.25
2022-10-17T05:21:24.355Z,6.40
2022-10-17T05:26:21.818Z,6.65
2022-10-17T05:31:18.849Z,7.07
2022-10-17T05:36:16.177Z,6.82
2022-10-17T05:41:12.571Z,4.70
2022-10-17T05:46:09.754Z,13.10
2022-10-17T05:51:09.229Z,6.87
2022-10-17T05:56:08.045Z,18.00
2022-10-17T06:01:08.220Z,12.43
2022-10-17T06:06:12.046Z,7.05
2022-10-17T06:11:10.262Z,7.45
2022-10-17T06:16:07.661Z,6.15
2022-10-17T06:21:10.034Z,7.20
2022-10-17T06:26:07.572Z,5.10
2022-10-17T06:31:06.213Z,4.80
2022-10-17T06:36:03.894Z,9.20
2022-10-17T06:41:13.709Z,7.68
2022-10-17T06:46:10.105Z,6.95
2022-10-17T06:51:07.304Z,6.10
2022-10-17T06:56:05.588Z,8.17
2022-10-17T07:01:04.736Z,7.80
2022-10-17T07:06:01.309Z,5.82
2022-10-17T07:10:57.915Z,7.68
2022-10-17T07:20:55.194Z,6.28
2022-10-17T07:25:51.613Z,7.43
2022-10-17T07:30:51.979Z,8.52
2022-10-17T07:35:52.794Z,7.88
2022-10-17T07:40:57.712Z,5.70
2022-10-17T07:45:54.569Z,8.15
2022-10-17T07:50:51.277Z,8.35
2022-10-17T07:55:49.482Z,11.07
2022-10-17T08:00:48.430Z,4.78
2022-10-17T08:05:45.080Z,7.05
2022-10-17T08:10:41.587Z,4.95
2022-10-17T08:15:39.053Z,7.47
2022-10-17T08:20:35.441Z,5.93
2022-10-17T08:25:31.966Z,4.85
2022-10-17T08:30:30.689Z,6.03
2022-10-17T08:35:27.137Z,6.07
2022-10-17T08:40:29.190Z,12.35
2022-10-17T08:45:56.274Z,6.88
2022-10-17T08:50:57.940Z,10.38
2022-10-17T08:55:55.213Z,3.67
2022-10-17T09:01:03.850Z,3.35
2022-10-17T09:06:19.134Z,3.00
2022-10-17T09:11:34.106Z,4.57
2022-10-17T09:16:56.806Z,5.60
2022-10-17T09:22:25.166Z,3.95
2022-10-17T09:27:35.502Z,5.15
2022-10-17T09:32:32.377Z,3.60
2022-10-17T09:37:32.679Z,5.28
2022-10-17T09:42:29.307Z,4.13
2022-10-17T09:47:39.145Z,2.93
2022-10-17T09:52:42.262Z,4.35
2022-10-17T09:57:54.984Z,4.05
2022-10-17T10:02:51.590Z,3.95
2022-10-17T10:08:03.454Z,4.00
2022-10-17T10:13:06.917Z,5.35
2022-10-17T10:18:12.430Z,4.85
2022-10-17T10:23:15.926Z,4.10
2022-10-17T10:28:12.427Z,4.25
2022-10-17T10:33:11.543Z,5.77
2022-10-17T10:38:17.446Z,6.68
2022-10-17T10:43:24.437Z,7.68
2022-10-17T10:48:37.500Z,6.35
2022-10-17T10:53:45.595Z,4.55
2022-10-17T10:59:06.457Z,3.67
2022-10-17T11:04:41.626Z,5.75
2022-10-17T11:09:49.076Z,4.13
2022-10-17T11:14:56.753Z,7.57
2022-10-17T11:20:37.757Z,12.57
2022-10-17T11:25:36.812Z,8.68
2022-10-17T11:30:46.181Z,3.97
2022-10-17T11:35:46.075Z,11.30
2022-10-17T11:40:48.556Z,12.00
2022-10-17T11:45:50.505Z,4.18
2022-10-17T11:56:29.711Z,6.55
2022-10-17T12:01:38.094Z,7.40
2022-10-17T12:07:01.102Z,5.68
2022-10-17T12:11:59.754Z,6.05
2022-10-17T12:16:56.154Z,9.00
2022-10-17T12:22:01.504Z,3.33
2022-10-17T12:26:58.274Z,10.68
2022-10-17T12:31:54.690Z,4.93
2022-10-17T12:36:51.129Z,7.07
2022-10-17T12:41:47.460Z,4.95
2022-10-17T12:46:50.875Z,10.35
2022-10-17T12:52:10.966Z,4.65
2022-10-17T12:57:35.976Z,4.13
2022-10-17T13:02:33.365Z,7.18
2022-10-17T13:07:30.128Z,9.02
2022-10-17T13:12:28.311Z,3.13
2022-10-17T13:17:28.241Z,7.85
2022-10-17T13:22:27.597Z,9.88
2022-10-17T13:27:34.907Z,6.82
2022-10-17T13:32:39.710Z,8.15
2022-10-17T13:37:37.013Z,9.88
2022-10-17T13:42:41.198Z,10.65
2022-10-17T13:47:39.410Z,9.73
2022-10-17T13:52:36.162Z,6.95
2022-10-17T13:57:32.962Z,7.68
2022-10-17T14:02:31.714Z,12.18
2022-10-17T14:08:05.853Z,7.82
2022-10-17T14:18:00.267Z,9.63
2022-10-17T14:28:18.313Z,7.70
2022-10-17T14:33:26.215Z,4.60
2022-10-17T14:38:23.540Z,7.22
2022-10-17T14:43:23.719Z,6.00
2022-10-17T14:48:23.249Z,10.13
2022-10-17T14:53:22.667Z,5.97
2022-10-17T14:58:27.652Z,4.30
2022-10-17T15:03:24.799Z,6.75
2022-10-17T15:08:23.752Z,5.28
2022-10-17T15:13:29.073Z,9.20
2022-10-17T15:18:26.753Z,7.78
2022-10-17T15:23:23.114Z,10.52
2022-10-17T15:28:19.500Z,8.07
2022-10-17T15:33:15.828Z,2.10
2022-10-17T15:38:17.820Z,5.00
2022-10-17T15:43:17.435Z,6.88
2022-10-17T15:48:23.096Z,7.40
2022-10-17T15:53:19.556Z,5.97
2022-10-17T15:58:17.122Z,8.23
2022-10-17T16:03:14.271Z,5.70
2022-10-17T16:08:10.693Z,5.75
2022-10-17T16:13:19.697Z,6.40
2022-10-17T16:18:16.157Z,3.53
2022-10-17T16:23:13.609Z,10.50
2022-10-17T16:28:11.910Z,11.48
2022-10-17T16:33:10.309Z,7.80
2022-10-17T16:38:07.927Z,5.80
2022-10-17T16:43:04.281Z,8.35
2022-10-17T16:48:00.625Z,9.45
2022-10-17T16:52:56.960Z,8.45
2022-10-17T16:57:53.329Z,9.98
2022-10-17T17:02:49.706Z,6.97
2022-10-17T17:07:47.851Z,11.18
2022-10-17T17:12:44.316Z,9.85
2022-10-17T17:17:56.301Z,9.00
2022-10-17T17:22:53.286Z,12.70
2022-10-17T17:27:49.637Z,13.77
2022-10-17T17:32:46.561Z,11.77
2022-10-17T17:37:42.902Z,11.87
2022-10-17T17:42:39.301Z,6.78
2022-10-17T17:47:35.660Z,12.60
2022-10-17T17:52:32.146Z,12.43
2022-10-17T17:57:30.127Z,7.90
2022-10-17T18:07:24.071Z,10.77
2022-10-17T18:12:20.428Z,5.30
2022-10-17T18:17:16.767Z,7.90
2022-10-17T18:22:13.091Z,10.93
2022-10-17T18:27:09.571Z,14.43
2022-10-17T18:32:05.946Z,7.63
2022-10-17T18:37:02.600Z,9.35
2022-10-17T18:41:59.106Z,11.35
2022-10-17T18:46:58.510Z,12.18
2022-10-17T18:51:59.439Z,10.93
2022-10-17T18:56:56.434Z,11.38
2022-10-17T19:01:52.936Z,14.10
2022-10-17T19:06:49.354Z,13.63
2022-10-17T19:11:45.849Z,19.60
2022-10-17T19:16:47.161Z,13.90
2022-10-17T19:21:43.984Z,15.98
2022-10-17T19:26:41.294Z,16.45
2022-10-17T19:31:37.854Z,20.50
2022-10-17T19:36:35.740Z,16.73
2022-10-17T19:46:30.389Z,20.98
2022-10-17T19:51:28.504Z,18.67
2022-10-17T19:56:25.066Z,22.52
2022-10-17T20:01:25.219Z,14.05
2022-10-17T20:06:22.472Z,19.75
2022-10-17T20:11:21.381Z,21.63
2022-10-17T20:16:23.298Z,22.58
2022-10-17T20:21:35.626Z,26.63
2022-10-17T20:26:38.297Z,26.02
2022-10-17T20:31:36.295Z,25.40
2022-10-17T20:36:36.670Z,24.42
2022-10-17T20:41:34.045Z,26.00
2022-10-17T20:46:36.929Z,27.90
2022-10-17T20:51:34.901Z,28.50
2022-10-17T20:56:32.727Z,24.17
2022-10-17T21:01:30.821Z,26.92
2022-10-17T21:06:27.706Z,26.42
2022-10-17T21:11:26.893Z,24.83
2022-10-17T21:16:24.001Z,21.65
2022-10-17T21:21:29.550Z,17.30
2022-10-17T21:26:26.927Z,17.15
2022-10-17T21:31:25.636Z,16.25
2022-10-17T21:36:23.929Z,18.88
2022-10-17T21:41:23.133Z,15.27
2022-10-17T21:46:20.499Z,14.65
2022-10-17T21:51:19.008Z,14.55
2022-10-17T21:56:18.522Z,13.60
2022-10-17T22:01:17.890Z,18.55
2022-10-17T22:11:35.470Z,20.65
2022-10-17T22:16:32.510Z,19.50
2022-10-17T22:21:29.296Z,13.57
2022-10-17T22:26:27.505Z,12.38
2022-10-17T22:31:24.681Z,13.70
2022-10-17T22:36:21.240Z,17.97
2022-10-17T22:41:17.887Z,17.90
2022-10-17T22:46:16.643Z,22.02
2022-10-17T22:51:13.285Z,18.67
2022-10-17T22:56:12.950Z,15.90
2022-10-17T23:01:14.528Z,16.38
2022-10-17T23:06:11.037Z,18.15
2022-10-17T23:11:08.376Z,19.67
2022-10-17T23:16:05.270Z,25.60
2022-10-17T23:21:01.878Z,21.02
2022-10-17T23:26:11.125Z,17.52
2022-10-17T23:31:13.252Z,23.88
2022-10-17T23:36:14.033Z,18.83
2022-10-17T23:41:11.210Z,12.48
2022-10-17T23:46:08.210Z,15.43
2022-10-17T23:51:04.665Z,24.97
2022-10-17T23:56:01.017Z,21.10
